Badlands National Park, SD

1:09 AM MDT on July 26, 2014 (GMT -0600)
Rapid City (KRAP) Elev 3166 ft | 44.05 °N, 103.06 °W | Change Station

Current weather conditions updated 17 minutes ago

Clear
Clear
63 °F
Feels Like 63 °F
N
12
Wind Variable Wind from North

Today is forecast to be Warmer than yesterday.

Today
High -- | Low -- °F
--% Chance of Precip.
Yesterday
High -- | Low -- °F
Precip. -- in
5:30 AM 8:17 PM
Waning Crescent, 0% visible
Pressure 29.83 in
Visibility 10.0 miles
Clouds Clear
Dew Point 53 °F
Humidity 70%
Rainfall 0.00 in
Snow Depth Not available.
UV 0 out of 12
Pollen 7.30 out of 12
Air Quality Not available.
Flu Activity Not available.
METAR KRAP 260652Z AUTO 36010KT 10SM CLR 17/12 A2989 RMK AO2 SLP099 T01720117 402720167

More Conditions Fewer Conditions

Pressure 29.83 in
Visibility 10.0 miles
Clouds Clear
Dew Point 53 °F
Humidity 70%
Rainfall 0.00 in
Snow Depth Not available.
UV 0 out of 12
Pollen 7.30 out of 12
Air Quality Not available.
Flu Activity Not available.
METAR KRAP 260652Z AUTO 36010KT 10SM CLR 17/12 A2989 RMK AO2 SLP099 T01720117 402720167

More Conditions Fewer Conditions

10-Day Weather Forecast

Almanac

Astronomy

Jul. 26, 2014 Rise Set
Actual Time 5:30 AM MDT 8:17 PM MDT
Civil Twilight 4:56 AM MDT 8:50 PM MDT
Nautical Twilight 4:14 AM MDT 9:33 PM MDT
Astronomical Twilight 3:25 AM MDT 10:21 PM MDT
Moon 5:27 AM MDT 7:50 PM MDT
Length of Visible Light 15h 54m
Length of Day
14h 47m
Tomorrow will be 2m 6s shorter.
Waning Crescent, 0% of the Moon is Illuminated
Today
Waning Crescent
Jul 26
New
Aug 3
First Quarter
Aug 10
Full
Aug 17
Last Quarter

Today's Extremes

State Highs State Lows

Community

WunderPhotos

Upload Photos

1,737,524 photos uploaded!

Nearby

Snow Depth

Station Depth Elevation
Blind Park 1 in 6890 ft

Earthquake Activity

City Distance Mag. Time & Date
No recent earthquake activity has been reported nearby.
Minimum magnitude displayed is 2.5.

Coastal Water Temperatures

Place Temperature
No Stations Reporting

Nearby Weather Stations

Station Location Temp. Dew Point Humidity Wind Precip. Elev Updated Type
RAWS PINNACLES SD, Wall, SD 70 °F 48 °F 45% East  at  11 mph 0.00 in / hr 3080 ft 12:20 AM MDT MADIS

Show More Stations Show Fewer Stations